Airfield :







YOU CAN JOIN US ON...

 
LOGIN :

Register | Disclaimer

   EN    FR    IT 

 









Legend :    VFR   Marginal VFR   IFR   Intensive IFR   Very Intensive IFR
Visi :
Ceiling :
>= 8 km
>= 3000ft
5 to 8 km
1000 to 3000 ft
1500m to 5 km
500 to 1000 ft
800 to 1500m
200 to 500 ft
< 800m
< 200 ft
Symbols :   Thunderstorms  Fog  Heavy snow  Heavy precipitations  Wind > 20 kt






- Airport Elevation : 270 ft
- IATA code : YMX


CYMX - Montreal International Mirabel

CURRENT METAR :
  • 280600Z 30004KT 270V350 25SM OVC043 M01/M04 A2971 RMK SC8 SLP066

EXPIRED METARs :
  • 280500Z 30004KT 220V340 25SM OVC045 M00/M03 A2970 RMK SC8 SLP064
  • 280400Z 31004KT 25SM BKN043 BKN060 00/M04 A2969 RMK SC6SC1 SLP060

TAF TAF CYMX
Valid from the 28 at 06:00 until the 29 at 06:00 UTC


280538Z 2806/2906 31005KT P6SM BKN040 OVC050
FM281800 32005KT P6SM BKN030
FM290100 30005KT P6SM FEW030 RMK NXT FCST BY 281200Z



MET'MAP, your aeronautical weather chart ! - Copyright ORBIFLY December 2007 - Disclaimer

ORBIFLY MET'MAP TEAM :

Programming & Development : Alexandra Zaïnal
Concept & original design : Baudouin d'Aumeries
Assistance for programming : Marc-Olivier Méhu
Technical & hardware support : Manuel Goepfert

Contact : metmap@orbifly.com




SOURCES & CREDITS :

   NOAA